Portada
METAR-TAF:

METAR-TAF

Aeroports :

Lawrence Municipal Airport

Lawrence, Massachusetts, Estats Units d'Amèrica

latitud: 42-42-47N, longitud: 071-07-33W, altitud: 45 m

Observació

L'informe es va fer fa 2 hores i 2 minuts, a les 19:28 UTC
Vent 3 kt del Oest/Nord-Oest
Temperatura 9°C
Humitat 93%
Pressió 1015 hPa
Visibilitat: 2.8 km
Cel cobert a una alçada de 200 ft
pluja, boirina

METAR: KLWM 261928Z 30003KT 1 3/4SM -RA BR OVC002 09/08 A2996 RMK AO2 RAB23 P0000 T00890083

Hora: 16:30 (21:30 UTC)


TAF: manca

Observacions i pronòstics meteorològics de més de 4000 aeroports (METAR i TAF).

Les estacions disponibles són els punts grocs i vermells al mapa.

Posi el ratolí al punt desitjat per veure el nom de l'estació.

Feu clic per veure les observacions i els pronòstics meteorològics.

Per canviar el mapa: feu clic els botons verds amb una creu de color negre per apropar; al botó verd amb un guió per allunyar la imatge; o en les fletxes verdes per a mapes adjacents.


METAR-TAF: